sensor_id;sensor_type;location;lat;lon;timestamp;P1;durP1;ratioP1;P2;durP2;ratioP2
34828;SDS011;21042;47.620;12.188;2023-04-25T00:00:16;4.90;;;2.40;;
34828;SDS011;21042;47.620;12.188;2023-04-25T00:02:43;3.10;;;2.10;;
34828;SDS011;21042;47.620;12.188;2023-04-25T00:05:10;5.38;;;2.83;;
34828;SDS011;21042;47.620;12.188;2023-04-25T00:07:37;3.47;;;2.25;;
34828;SDS011;21042;47.620;12.188;2023-04-25T00:10:04;4.03;;;2.40;;
34828;SDS011;21042;47.620;12.188;2023-04-25T00:12:32;4.20;;;2.20;;
34828;SDS011;21042;47.620;12.188;2023-04-25T00:14:59;5.25;;;2.95;;
34828;SDS011;21042;47.620;12.188;2023-04-25T00:17:26;4.95;;;2.95;;
34828;SDS011;21042;47.620;12.188;2023-04-25T00:19:53;5.22;;;3.17;;
34828;SDS011;21042;47.620;12.188;2023-04-25T00:22:20;4.50;;;2.85;;
34828;SDS011;21042;47.620;12.188;2023-04-25T00:24:47;3.75;;;2.40;;
34828;SDS011;21042;47.620;12.188;2023-04-25T00:27:14;6.53;;;2.75;;
34828;SDS011;21042;47.620;12.188;2023-04-25T00:29:41;3.03;;;2.38;;
34828;SDS011;21042;47.620;12.188;2023-04-25T00:32:08;5.72;;;2.33;;
34828;SDS011;21042;47.620;12.188;2023-04-25T00:34:35;5.25;;;2.97;;
34828;SDS011;21042;47.620;12.188;2023-04-25T00:37:02;3.70;;;2.28;;
34828;SDS011;21042;47.620;12.188;2023-04-25T00:39:29;5.53;;;2.50;;
34828;SDS011;21042;47.620;12.188;2023-04-25T00:41:55;3.90;;;2.08;;
34828;SDS011;21042;47.620;12.188;2023-04-25T00:44:24;3.50;;;2.10;;
34828;SDS011;21042;47.620;12.188;2023-04-25T00:46:53;2.72;;;2.00;;
34828;SDS011;21042;47.620;12.188;2023-04-25T00:49:20;6.43;;;2.08;;
34828;SDS011;21042;47.620;12.188;2023-04-25T00:51:47;4.65;;;2.22;;
34828;SDS011;21042;47.620;12.188;2023-04-25T00:54:14;2.42;;;1.75;;
34828;SDS011;21042;47.620;12.188;2023-04-25T00:56:41;3.30;;;2.25;;
34828;SDS011;21042;47.620;12.188;2023-04-25T00:59:09;4.18;;;2.30;;
34828;SDS011;21042;47.620;12.188;2023-04-25T01:01:38;3.28;;;1.98;;
34828;SDS011;21042;47.620;12.188;2023-04-25T01:04:05;3.35;;;1.90;;
34828;SDS011;21042;47.620;12.188;2023-04-25T01:06:33;3.47;;;1.95;;
34828;SDS011;21042;47.620;12.188;2023-04-25T01:09:00;3.00;;;2.25;;
34828;SDS011;21042;47.620;12.188;2023-04-25T01:11:28;3.45;;;2.20;;
34828;SDS011;21042;47.620;12.188;2023-04-25T01:13:54;2.00;;;1.80;;
34828;SDS011;21042;47.620;12.188;2023-04-25T01:16:21;3.92;;;1.90;;
34828;SDS011;21042;47.620;12.188;2023-04-25T01:18:50;4.82;;;2.28;;
34828;SDS011;21042;47.620;12.188;2023-04-25T01:21:17;3.20;;;1.92;;
34828;SDS011;21042;47.620;12.188;2023-04-25T01:23:46;5.18;;;2.00;;
34828;SDS011;21042;47.620;12.188;2023-04-25T01:26:14;4.47;;;2.20;;
34828;SDS011;21042;47.620;12.188;2023-04-25T01:28:42;2.55;;;1.65;;
34828;SDS011;21042;47.620;12.188;2023-04-25T01:31:11;5.55;;;2.15;;
34828;SDS011;21042;47.620;12.188;2023-04-25T01:33:38;4.95;;;2.00;;
34828;SDS011;21042;47.620;12.188;2023-04-25T01:36:05;3.85;;;2.28;;
34828;SDS011;21042;47.620;12.188;2023-04-25T01:38:33;4.00;;;2.22;;
34828;SDS011;21042;47.620;12.188;2023-04-25T01:41:01;5.82;;;2.13;;
34828;SDS011;21042;47.620;12.188;2023-04-25T01:43:28;3.50;;;2.13;;
34828;SDS011;21042;47.620;12.188;2023-04-25T01:45:55;3.95;;;2.13;;
34828;SDS011;21042;47.620;12.188;2023-04-25T01:48:23;4.95;;;2.38;;
34828;SDS011;21042;47.620;12.188;2023-04-25T01:50:49;5.13;;;2.92;;
34828;SDS011;21042;47.620;12.188;2023-04-25T01:53:16;3.38;;;2.40;;
34828;SDS011;21042;47.620;12.188;2023-04-25T01:55:44;6.45;;;2.40;;
34828;SDS011;21042;47.620;12.188;2023-04-25T01:58:14;4.68;;;2.45;;
34828;SDS011;21042;47.620;12.188;2023-04-25T02:00:55;5.80;;;2.40;;
34828;SDS011;21042;47.620;12.188;2023-04-25T02:03:25;6.90;;;3.65;;
34828;SDS011;21042;47.620;12.188;2023-04-25T02:05:54;4.68;;;3.20;;
34828;SDS011;21042;47.620;12.188;2023-04-25T02:08:21;5.13;;;3.22;;
34828;SDS011;21042;47.620;12.188;2023-04-25T02:10:48;3.22;;;2.22;;
34828;SDS011;21042;47.620;12.188;2023-04-25T02:13:18;3.63;;;2.50;;
34828;SDS011;21042;47.620;12.188;2023-04-25T02:16:01;3.97;;;2.22;;
34828;SDS011;21042;47.620;12.188;2023-04-25T02:18:29;3.97;;;2.30;;
34828;SDS011;21042;47.620;12.188;2023-04-25T02:20:58;3.55;;;1.95;;
34828;SDS011;21042;47.620;12.188;2023-04-25T02:23:25;2.63;;;1.80;;
34828;SDS011;21042;47.620;12.188;2023-04-25T02:25:52;3.70;;;2.20;;
34828;SDS011;21042;47.620;12.188;2023-04-25T02:28:21;3.75;;;2.03;;
34828;SDS011;21042;47.620;12.188;2023-04-25T02:30:48;5.43;;;1.95;;
34828;SDS011;21042;47.620;12.188;2023-04-25T02:33:14;3.55;;;2.03;;
34828;SDS011;21042;47.620;12.188;2023-04-25T02:35:43;3.83;;;2.10;;
34828;SDS011;21042;47.620;12.188;2023-04-25T02:38:09;5.30;;;2.08;;
34828;SDS011;21042;47.620;12.188;2023-04-25T02:40:38;4.63;;;2.05;;
34828;SDS011;21042;47.620;12.188;2023-04-25T02:43:04;4.18;;;1.95;;
34828;SDS011;21042;47.620;12.188;2023-04-25T02:45:31;4.63;;;2.25;;
34828;SDS011;21042;47.620;12.188;2023-04-25T02:47:58;5.15;;;2.40;;
34828;SDS011;21042;47.620;12.188;2023-04-25T02:50:25;7.85;;;2.25;;
34828;SDS011;21042;47.620;12.188;2023-04-25T02:52:52;3.33;;;2.42;;
34828;SDS011;21042;47.620;12.188;2023-04-25T02:55:24;3.30;;;2.28;;
34828;SDS011;21042;47.620;12.188;2023-04-25T02:57:54;3.88;;;2.22;;
34828;SDS011;21042;47.620;12.188;2023-04-25T03:00:34;2.95;;;2.20;;
34828;SDS011;21042;47.620;12.188;2023-04-25T03:03:01;5.85;;;1.95;;
34828;SDS011;21042;47.620;12.188;2023-04-25T03:05:28;5.78;;;2.53;;
34828;SDS011;21042;47.620;12.188;2023-04-25T03:07:54;3.00;;;2.00;;
34828;SDS011;21042;47.620;12.188;2023-04-25T03:10:21;4.38;;;1.90;;
34828;SDS011;21042;47.620;12.188;2023-04-25T03:12:48;3.42;;;2.20;;
34828;SDS011;21042;47.620;12.188;2023-04-25T03:15:15;2.78;;;1.98;;
34828;SDS011;21042;47.620;12.188;2023-04-25T03:20:09;5.35;;;2.03;;
34828;SDS011;21042;47.620;12.188;2023-04-25T03:25:03;2.88;;;1.85;;
34828;SDS011;21042;47.620;12.188;2023-04-25T03:29:57;3.13;;;2.05;;
34828;SDS011;21042;47.620;12.188;2023-04-25T03:32:24;2.72;;;2.05;;
34828;SDS011;21042;47.620;12.188;2023-04-25T03:34:51;5.95;;;2.55;;
34828;SDS011;21042;47.620;12.188;2023-04-25T03:37:18;5.97;;;2.70;;
34828;SDS011;21042;47.620;12.188;2023-04-25T03:39:44;4.63;;;2.42;;
34828;SDS011;21042;47.620;12.188;2023-04-25T03:42:11;4.85;;;2.35;;
34828;SDS011;21042;47.620;12.188;2023-04-25T03:44:38;2.80;;;2.10;;
34828;SDS011;21042;47.620;12.188;2023-04-25T03:47:05;4.93;;;2.58;;
34828;SDS011;21042;47.620;12.188;2023-04-25T03:49:33;7.50;;;2.22;;
34828;SDS011;21042;47.620;12.188;2023-04-25T03:52:04;4.32;;;2.17;;
34828;SDS011;21042;47.620;12.188;2023-04-25T03:54:35;4.25;;;2.35;;
34828;SDS011;21042;47.620;12.188;2023-04-25T03:57:05;7.00;;;2.53;;
34828;SDS011;21042;47.620;12.188;2023-04-25T03:59:35;4.90;;;2.13;;
34828;SDS011;21042;47.620;12.188;2023-04-25T04:02:02;5.60;;;2.45;;
34828;SDS011;21042;47.620;12.188;2023-04-25T04:04:31;5.63;;;2.05;;
34828;SDS011;21042;47.620;12.188;2023-04-25T04:07:00;3.80;;;2.17;;
34828;SDS011;21042;47.620;12.188;2023-04-25T04:09:30;5.47;;;2.35;;
34828;SDS011;21042;47.620;12.188;2023-04-25T04:11:59;4.55;;;1.90;;
34828;SDS011;21042;47.620;12.188;2023-04-25T04:14:29;6.45;;;2.20;;
34828;SDS011;21042;47.620;12.188;2023-04-25T04:16:56;2.50;;;2.20;;
34828;SDS011;21042;47.620;12.188;2023-04-25T04:19:23;3.03;;;1.70;;
34828;SDS011;21042;47.620;12.188;2023-04-25T04:21:58;3.38;;;2.60;;
34828;SDS011;21042;47.620;12.188;2023-04-25T04:24:25;2.53;;;2.20;;
34828;SDS011;21042;47.620;12.188;2023-04-25T04:26:58;4.55;;;2.33;;
34828;SDS011;21042;47.620;12.188;2023-04-25T04:32:10;3.10;;;2.00;;
34828;SDS011;21042;47.620;12.188;2023-04-25T04:34:37;6.60;;;2.60;;
34828;SDS011;21042;47.620;12.188;2023-04-25T04:37:05;4.95;;;2.45;;
34828;SDS011;21042;47.620;12.188;2023-04-25T04:39:33;3.72;;;2.20;;
34828;SDS011;21042;47.620;12.188;2023-04-25T04:42:14;3.05;;;2.05;;
34828;SDS011;21042;47.620;12.188;2023-04-25T04:44:52;4.05;;;2.17;;
34828;SDS011;21042;47.620;12.188;2023-04-25T04:47:34;5.22;;;2.38;;
34828;SDS011;21042;47.620;12.188;2023-04-25T04:50:26;4.03;;;2.35;;
34828;SDS011;21042;47.620;12.188;2023-04-25T04:53:07;7.13;;;2.17;;
34828;SDS011;21042;47.620;12.188;2023-04-25T04:55:37;4.10;;;2.10;;
34828;SDS011;21042;47.620;12.188;2023-04-25T04:58:11;4.53;;;1.98;;
34828;SDS011;21042;47.620;12.188;2023-04-25T05:00:48;4.93;;;2.53;;
34828;SDS011;21042;47.620;12.188;2023-04-25T05:03:53;5.28;;;2.90;;
34828;SDS011;21042;47.620;12.188;2023-04-25T05:06:53;3.47;;;2.50;;
34828;SDS011;21042;47.620;12.188;2023-04-25T05:09:40;3.20;;;1.85;;
34828;SDS011;21042;47.620;12.188;2023-04-25T05:12:10;3.38;;;2.22;;
34828;SDS011;21042;47.620;12.188;2023-04-25T05:14:49;6.10;;;2.30;;
34828;SDS011;21042;47.620;12.188;2023-04-25T05:17:34;5.60;;;2.25;;
34828;SDS011;21042;47.620;12.188;2023-04-25T05:20:22;3.10;;;2.10;;
34828;SDS011;21042;47.620;12.188;2023-04-25T05:23:02;2.25;;;1.67;;
34828;SDS011;21042;47.620;12.188;2023-04-25T05:25:53;3.55;;;2.22;;
34828;SDS011;21042;47.620;12.188;2023-04-25T05:28:49;4.40;;;2.05;;
34828;SDS011;21042;47.620;12.188;2023-04-25T05:31:39;3.42;;;2.40;;
34828;SDS011;21042;47.620;12.188;2023-04-25T05:34:09;5.15;;;2.63;;
34828;SDS011;21042;47.620;12.188;2023-04-25T05:36:49;4.72;;;2.30;;
34828;SDS011;21042;47.620;12.188;2023-04-25T05:39:16;4.40;;;2.35;;
34828;SDS011;21042;47.620;12.188;2023-04-25T05:42:02;4.47;;;2.40;;
34828;SDS011;21042;47.620;12.188;2023-04-25T05:44:48;4.93;;;2.40;;
34828;SDS011;21042;47.620;12.188;2023-04-25T05:47:32;3.20;;;2.00;;
34828;SDS011;21042;47.620;12.188;2023-04-25T05:50:17;3.22;;;2.22;;
34828;SDS011;21042;47.620;12.188;2023-04-25T05:52:51;3.92;;;2.53;;
34828;SDS011;21042;47.620;12.188;2023-04-25T05:55:28;3.60;;;2.17;;
34828;SDS011;21042;47.620;12.188;2023-04-25T05:57:57;4.75;;;2.00;;
34828;SDS011;21042;47.620;12.188;2023-04-25T06:00:24;5.35;;;2.33;;
34828;SDS011;21042;47.620;12.188;2023-04-25T06:02:51;7.65;;;1.95;;
34828;SDS011;21042;47.620;12.188;2023-04-25T06:05:18;2.80;;;2.08;;
34828;SDS011;21042;47.620;12.188;2023-04-25T06:07:46;5.47;;;2.65;;
34828;SDS011;21042;47.620;12.188;2023-04-25T06:10:13;5.25;;;2.80;;
34828;SDS011;21042;47.620;12.188;2023-04-25T06:12:41;4.65;;;2.83;;
34828;SDS011;21042;47.620;12.188;2023-04-25T06:15:08;8.27;;;2.90;;
34828;SDS011;21042;47.620;12.188;2023-04-25T06:17:53;5.90;;;2.65;;
34828;SDS011;21042;47.620;12.188;2023-04-25T06:20:21;4.93;;;2.30;;
34828;SDS011;21042;47.620;12.188;2023-04-25T06:22:51;3.88;;;2.45;;
34828;SDS011;21042;47.620;12.188;2023-04-25T06:25:20;4.55;;;2.60;;
34828;SDS011;21042;47.620;12.188;2023-04-25T06:27:47;4.13;;;2.72;;
34828;SDS011;21042;47.620;12.188;2023-04-25T06:32:44;7.47;;;2.67;;
34828;SDS011;21042;47.620;12.188;2023-04-25T06:35:11;5.57;;;2.92;;
34828;SDS011;21042;47.620;12.188;2023-04-25T06:37:39;4.47;;;2.70;;
34828;SDS011;21042;47.620;12.188;2023-04-25T06:40:06;7.75;;;3.15;;
34828;SDS011;21042;47.620;12.188;2023-04-25T06:45:20;3.85;;;2.30;;
34828;SDS011;21042;47.620;12.188;2023-04-25T06:47:47;3.92;;;1.75;;
34828;SDS011;21042;47.620;12.188;2023-04-25T06:50:14;5.10;;;3.03;;
34828;SDS011;21042;47.620;12.188;2023-04-25T06:52:42;6.57;;;2.88;;
34828;SDS011;21042;47.620;12.188;2023-04-25T06:55:09;5.20;;;2.92;;
34828;SDS011;21042;47.620;12.188;2023-04-25T06:57:54;5.25;;;2.83;;
34828;SDS011;21042;47.620;12.188;2023-04-25T07:00:40;4.78;;;2.67;;
34828;SDS011;21042;47.620;12.188;2023-04-25T07:03:06;7.85;;;2.67;;
34828;SDS011;21042;47.620;12.188;2023-04-25T07:05:33;7.63;;;2.65;;
34828;SDS011;21042;47.620;12.188;2023-04-25T07:08:00;5.05;;;3.10;;
34828;SDS011;21042;47.620;12.188;2023-04-25T07:10:28;4.50;;;3.20;;
34828;SDS011;21042;47.620;12.188;2023-04-25T07:12:56;5.25;;;2.78;;
34828;SDS011;21042;47.620;12.188;2023-04-25T07:15:23;6.28;;;3.17;;
34828;SDS011;21042;47.620;12.188;2023-04-25T07:17:49;5.60;;;2.50;;
34828;SDS011;21042;47.620;12.188;2023-04-25T07:20:16;5.18;;;2.67;;
34828;SDS011;21042;47.620;12.188;2023-04-25T07:22:43;14.80;;;7.70;;
34828;SDS011;21042;47.620;12.188;2023-04-25T07:25:11;8.10;;;4.28;;
34828;SDS011;21042;47.620;12.188;2023-04-25T07:27:38;6.72;;;4.05;;
34828;SDS011;21042;47.620;12.188;2023-04-25T07:30:12;8.55;;;4.75;;
34828;SDS011;21042;47.620;12.188;2023-04-25T07:32:39;6.35;;;3.30;;
34828;SDS011;21042;47.620;12.188;2023-04-25T07:35:06;5.78;;;3.33;;
34828;SDS011;21042;47.620;12.188;2023-04-25T07:37:34;6.75;;;3.30;;
34828;SDS011;21042;47.620;12.188;2023-04-25T07:40:13;5.75;;;2.67;;
34828;SDS011;21042;47.620;12.188;2023-04-25T07:42:46;8.48;;;3.45;;
34828;SDS011;21042;47.620;12.188;2023-04-25T07:45:17;3.72;;;2.65;;
34828;SDS011;21042;47.620;12.188;2023-04-25T07:47:44;3.25;;;2.33;;
34828;SDS011;21042;47.620;12.188;2023-04-25T07:50:11;4.95;;;2.33;;
34828;SDS011;21042;47.620;12.188;2023-04-25T07:52:38;5.63;;;2.35;;
34828;SDS011;21042;47.620;12.188;2023-04-25T07:55:14;3.45;;;2.60;;
34828;SDS011;21042;47.620;12.188;2023-04-25T07:57:52;5.80;;;2.35;;
34828;SDS011;21042;47.620;12.188;2023-04-25T08:00:19;4.05;;;2.58;;
34828;SDS011;21042;47.620;12.188;2023-04-25T08:02:52;3.00;;;2.42;;
34828;SDS011;21042;47.620;12.188;2023-04-25T08:05:20;2.70;;;2.00;;
34828;SDS011;21042;47.620;12.188;2023-04-25T08:07:54;7.40;;;1.95;;
34828;SDS011;21042;47.620;12.188;2023-04-25T08:12:49;6.80;;;2.33;;
34828;SDS011;21042;47.620;12.188;2023-04-25T08:15:15;2.55;;;1.85;;
34828;SDS011;21042;47.620;12.188;2023-04-25T08:17:42;13.25;;;1.95;;
34828;SDS011;21042;47.620;12.188;2023-04-25T08:20:11;3.78;;;1.98;;
34828;SDS011;21042;47.620;12.188;2023-04-25T08:22:39;4.40;;;2.00;;
34828;SDS011;21042;47.620;12.188;2023-04-25T08:25:26;4.70;;;3.17;;
34828;SDS011;21042;47.620;12.188;2023-04-25T08:27:54;4.95;;;2.33;;
34828;SDS011;21042;47.620;12.188;2023-04-25T08:30:21;4.13;;;2.40;;
34828;SDS011;21042;47.620;12.188;2023-04-25T08:32:49;4.60;;;2.30;;
34828;SDS011;21042;47.620;12.188;2023-04-25T08:35:34;4.28;;;2.15;;
34828;SDS011;21042;47.620;12.188;2023-04-25T08:40:28;3.83;;;2.20;;
34828;SDS011;21042;47.620;12.188;2023-04-25T08:43:01;2.35;;;1.80;;
34828;SDS011;21042;47.620;12.188;2023-04-25T08:45:29;2.67;;;2.10;;
34828;SDS011;21042;47.620;12.188;2023-04-25T08:47:58;5.78;;;1.95;;
34828;SDS011;21042;47.620;12.188;2023-04-25T08:50:27;4.53;;;2.13;;
34828;SDS011;21042;47.620;12.188;2023-04-25T08:52:56;4.78;;;2.00;;
34828;SDS011;21042;47.620;12.188;2023-04-25T08:55:27;5.60;;;2.03;;
34828;SDS011;21042;47.620;12.188;2023-04-25T08:57:57;5.20;;;2.00;;
34828;SDS011;21042;47.620;12.188;2023-04-25T09:00:27;6.25;;;1.70;;
34828;SDS011;21042;47.620;12.188;2023-04-25T09:02:55;4.72;;;1.70;;
34828;SDS011;21042;47.620;12.188;2023-04-25T09:05:25;2.33;;;1.42;;
34828;SDS011;21042;47.620;12.188;2023-04-25T09:07:54;2.92;;;1.58;;
34828;SDS011;21042;47.620;12.188;2023-04-25T09:10:22;4.43;;;1.42;;
34828;SDS011;21042;47.620;12.188;2023-04-25T09:13:01;1.65;;;1.10;;
34828;SDS011;21042;47.620;12.188;2023-04-25T09:15:28;2.53;;;1.50;;
34828;SDS011;21042;47.620;12.188;2023-04-25T09:18:06;2.75;;;1.40;;
34828;SDS011;21042;47.620;12.188;2023-04-25T09:20:42;5.10;;;1.73;;
34828;SDS011;21042;47.620;12.188;2023-04-25T09:23:12;4.43;;;1.20;;
34828;SDS011;21042;47.620;12.188;2023-04-25T09:25:40;3.53;;;1.30;;
34828;SDS011;21042;47.620;12.188;2023-04-25T09:28:09;3.22;;;1.60;;
34828;SDS011;21042;47.620;12.188;2023-04-25T09:30:37;4.00;;;1.75;;
34828;SDS011;21042;47.620;12.188;2023-04-25T09:33:30;3.58;;;1.63;;
34828;SDS011;21042;47.620;12.188;2023-04-25T09:36:07;5.43;;;2.20;;
34828;SDS011;21042;47.620;12.188;2023-04-25T09:39:13;3.97;;;1.40;;
34828;SDS011;21042;47.620;12.188;2023-04-25T09:41:53;5.10;;;2.28;;
34828;SDS011;21042;47.620;12.188;2023-04-25T09:44:24;5.60;;;1.50;;
34828;SDS011;21042;47.620;12.188;2023-04-25T09:46:52;1.73;;;1.17;;
34828;SDS011;21042;47.620;12.188;2023-04-25T09:49:23;8.98;;;1.50;;
34828;SDS011;21042;47.620;12.188;2023-04-25T09:52:06;4.88;;;1.27;;
34828;SDS011;21042;47.620;12.188;2023-04-25T09:54:53;2.10;;;1.40;;
34828;SDS011;21042;47.620;12.188;2023-04-25T09:57:27;3.38;;;1.33;;
34828;SDS011;21042;47.620;12.188;2023-04-25T09:59:55;2.67;;;1.15;;
34828;SDS011;21042;47.620;12.188;2023-04-25T10:02:26;4.28;;;1.50;;
34828;SDS011;21042;47.620;12.188;2023-04-25T10:04:59;4.80;;;1.20;;
34828;SDS011;21042;47.620;12.188;2023-04-25T10:07:36;4.15;;;1.45;;
34828;SDS011;21042;47.620;12.188;2023-04-25T10:16:11;3.05;;;1.25;;
34828;SDS011;21042;47.620;12.188;2023-04-25T10:18:39;3.10;;;1.33;;
34828;SDS011;21042;47.620;12.188;2023-04-25T10:21:06;2.60;;;1.17;;
34828;SDS011;21042;47.620;12.188;2023-04-25T10:23:33;8.15;;;1.38;;
34828;SDS011;21042;47.620;12.188;2023-04-25T10:26:01;1.00;;;0.90;;
34828;SDS011;21042;47.620;12.188;2023-04-25T10:28:28;2.35;;;1.10;;
34828;SDS011;21042;47.620;12.188;2023-04-25T10:30:58;1.63;;;1.13;;
34828;SDS011;21042;47.620;12.188;2023-04-25T10:33:33;1.95;;;1.02;;
34828;SDS011;21042;47.620;12.188;2023-04-25T10:36:08;3.15;;;1.40;;
34828;SDS011;21042;47.620;12.188;2023-04-25T10:38:35;2.78;;;1.40;;
34828;SDS011;21042;47.620;12.188;2023-04-25T10:41:04;2.00;;;1.30;;
34828;SDS011;21042;47.620;12.188;2023-04-25T10:48:45;4.10;;;1.42;;
34828;SDS011;21042;47.620;12.188;2023-04-25T10:51:20;3.55;;;1.50;;
34828;SDS011;21042;47.620;12.188;2023-04-25T10:54:11;3.17;;;1.35;;
34828;SDS011;21042;47.620;12.188;2023-04-25T10:56:38;6.13;;;1.50;;
34828;SDS011;21042;47.620;12.188;2023-04-25T10:59:11;1.90;;;1.13;;
34828;SDS011;21042;47.620;12.188;2023-04-25T11:01:42;3.95;;;1.00;;
34828;SDS011;21042;47.620;12.188;2023-04-25T11:04:20;3.70;;;1.27;;
34828;SDS011;21042;47.620;12.188;2023-04-25T11:07:09;7.30;;;1.63;;
34828;SDS011;21042;47.620;12.188;2023-04-25T11:09:41;1.73;;;1.35;;
34828;SDS011;21042;47.620;12.188;2023-04-25T11:12:08;5.25;;;1.20;;
34828;SDS011;21042;47.620;12.188;2023-04-25T11:14:37;2.55;;;1.20;;
34828;SDS011;21042;47.620;12.188;2023-04-25T11:17:09;2.88;;;1.17;;
34828;SDS011;21042;47.620;12.188;2023-04-25T11:19:37;1.83;;;1.20;;
34828;SDS011;21042;47.620;12.188;2023-04-25T11:22:04;2.38;;;1.30;;
34828;SDS011;21042;47.620;12.188;2023-04-25T11:26:59;2.28;;;1.20;;
34828;SDS011;21042;47.620;12.188;2023-04-25T11:29:28;1.20;;;0.98;;
34828;SDS011;21042;47.620;12.188;2023-04-25T11:31:56;2.25;;;1.30;;
34828;SDS011;21042;47.620;12.188;2023-04-25T11:34:27;4.40;;;1.30;;
34828;SDS011;21042;47.620;12.188;2023-04-25T11:36:57;1.83;;;1.20;;
34828;SDS011;21042;47.620;12.188;2023-04-25T11:39:24;3.65;;;1.30;;
34828;SDS011;21042;47.620;12.188;2023-04-25T11:44:18;3.20;;;1.17;;
34828;SDS011;21042;47.620;12.188;2023-04-25T11:46:46;2.95;;;0.90;;
34828;SDS011;21042;47.620;12.188;2023-04-25T11:49:13;1.67;;;0.95;;
34828;SDS011;21042;47.620;12.188;2023-04-25T11:51:44;1.88;;;0.73;;
34828;SDS011;21042;47.620;12.188;2023-04-25T11:54:12;1.02;;;0.50;;
34828;SDS011;21042;47.620;12.188;2023-04-25T11:56:43;2.53;;;0.60;;
34828;SDS011;21042;47.620;12.188;2023-04-25T11:59:11;1.58;;;0.60;;
34828;SDS011;21042;47.620;12.188;2023-04-25T12:01:40;3.33;;;0.73;;
34828;SDS011;21042;47.620;12.188;2023-04-25T12:04:11;2.15;;;0.60;;
34828;SDS011;21042;47.620;12.188;2023-04-25T12:06:46;2.38;;;0.95;;
34828;SDS011;21042;47.620;12.188;2023-04-25T12:09:16;1.75;;;0.68;;
34828;SDS011;21042;47.620;12.188;2023-04-25T12:11:45;1.38;;;0.52;;
34828;SDS011;21042;47.620;12.188;2023-04-25T12:16:54;1.17;;;0.70;;
34828;SDS011;21042;47.620;12.188;2023-04-25T12:19:24;1.95;;;0.82;;
34828;SDS011;21042;47.620;12.188;2023-04-25T12:21:52;1.98;;;0.73;;
34828;SDS011;21042;47.620;12.188;2023-04-25T12:24:25;2.08;;;0.65;;
34828;SDS011;21042;47.620;12.188;2023-04-25T12:27:04;0.82;;;0.60;;
34828;SDS011;21042;47.620;12.188;2023-04-25T12:29:34;0.80;;;0.63;;
34828;SDS011;21042;47.620;12.188;2023-04-25T12:32:15;1.20;;;0.60;;
34828;SDS011;21042;47.620;12.188;2023-04-25T12:34:43;0.20;;;0.20;;
34828;SDS011;21042;47.620;12.188;2023-04-25T12:37:09;0.20;;;0.20;;
34828;SDS011;21042;47.620;12.188;2023-04-25T12:39:36;0.95;;;0.30;;
34828;SDS011;21042;47.620;12.188;2023-04-25T12:42:03;0.50;;;0.30;;
34828;SDS011;21042;47.620;12.188;2023-04-25T12:44:34;0.30;;;0.20;;
34828;SDS011;21042;47.620;12.188;2023-04-25T12:47:01;2.83;;;0.38;;
34828;SDS011;21042;47.620;12.188;2023-04-25T12:49:29;0.43;;;0.40;;
34828;SDS011;21042;47.620;12.188;2023-04-25T12:51:56;0.40;;;0.40;;
34828;SDS011;21042;47.620;12.188;2023-04-25T12:54:23;0.30;;;0.30;;
34828;SDS011;21042;47.620;12.188;2023-04-25T12:56:49;1.95;;;0.40;;
34828;SDS011;21042;47.620;12.188;2023-04-25T12:59:16;1.08;;;0.40;;
34828;SDS011;21042;47.620;12.188;2023-04-25T13:01:44;1.00;;;0.50;;
34828;SDS011;21042;47.620;12.188;2023-04-25T13:04:11;0.52;;;0.35;;
34828;SDS011;21042;47.620;12.188;2023-04-25T13:06:38;1.52;;;0.43;;
34828;SDS011;21042;47.620;12.188;2023-04-25T13:09:05;1.27;;;0.30;;
34828;SDS011;21042;47.620;12.188;2023-04-25T13:14:00;1.10;;;0.47;;
34828;SDS011;21042;47.620;12.188;2023-04-25T13:16:27;1.60;;;0.50;;
34828;SDS011;21042;47.620;12.188;2023-04-25T13:18:53;2.97;;;0.52;;
34828;SDS011;21042;47.620;12.188;2023-04-25T13:21:22;0.52;;;0.25;;
34828;SDS011;21042;47.620;12.188;2023-04-25T13:23:49;0.57;;;0.38;;
34828;SDS011;21042;47.620;12.188;2023-04-25T13:26:16;0.40;;;0.40;;
34828;SDS011;21042;47.620;12.188;2023-04-25T13:28:43;0.88;;;0.40;;
34828;SDS011;21042;47.620;12.188;2023-04-25T13:31:10;0.35;;;0.35;;
34828;SDS011;21042;47.620;12.188;2023-04-25T13:33:37;1.23;;;0.32;;
34828;SDS011;21042;47.620;12.188;2023-04-25T13:36:04;0.50;;;0.40;;
34828;SDS011;21042;47.620;12.188;2023-04-25T13:38:31;1.42;;;0.60;;
34828;SDS011;21042;47.620;12.188;2023-04-25T13:40:58;3.53;;;0.50;;
34828;SDS011;21042;47.620;12.188;2023-04-25T13:43:25;0.50;;;0.40;;
34828;SDS011;21042;47.620;12.188;2023-04-25T13:45:51;1.05;;;0.57;;
34828;SDS011;21042;47.620;12.188;2023-04-25T13:48:18;2.42;;;0.65;;
34828;SDS011;21042;47.620;12.188;2023-04-25T13:50:46;1.98;;;0.50;;
34828;SDS011;21042;47.620;12.188;2023-04-25T13:53:12;1.58;;;0.50;;
34828;SDS011;21042;47.620;12.188;2023-04-25T13:55:39;0.50;;;0.50;;
34828;SDS011;21042;47.620;12.188;2023-04-25T13:58:06;0.70;;;0.60;;
34828;SDS011;21042;47.620;12.188;2023-04-25T14:00:36;1.00;;;0.60;;
34828;SDS011;21042;47.620;12.188;2023-04-25T14:03:05;1.33;;;0.88;;
34828;SDS011;21042;47.620;12.188;2023-04-25T14:05:35;1.20;;;0.63;;
34828;SDS011;21042;47.620;12.188;2023-04-25T14:08:05;0.50;;;0.50;;
34828;SDS011;21042;47.620;12.188;2023-04-25T14:10:33;2.92;;;0.80;;
34828;SDS011;21042;47.620;12.188;2023-04-25T14:13:00;0.68;;;0.40;;
34828;SDS011;21042;47.620;12.188;2023-04-25T14:15:27;1.77;;;0.20;;
34828;SDS011;21042;47.620;12.188;2023-04-25T14:17:54;1.27;;;0.30;;
34828;SDS011;21042;47.620;12.188;2023-04-25T14:20:20;0.82;;;0.20;;
34828;SDS011;21042;47.620;12.188;2023-04-25T14:22:49;0.63;;;0.10;;
34828;SDS011;21042;47.620;12.188;2023-04-25T14:25:16;0.45;;;0.20;;
34828;SDS011;21042;47.620;12.188;2023-04-25T14:27:43;0.40;;;0.15;;
34828;SDS011;21042;47.620;12.188;2023-04-25T14:30:13;0.73;;;0.10;;
34828;SDS011;21042;47.620;12.188;2023-04-25T14:32:40;2.70;;;0.10;;
34828;SDS011;21042;47.620;12.188;2023-04-25T14:35:07;2.03;;;0.20;;
34828;SDS011;21042;47.620;12.188;2023-04-25T14:37:34;0.35;;;0.25;;
34828;SDS011;21042;47.620;12.188;2023-04-25T14:40:01;2.60;;;0.30;;
34828;SDS011;21042;47.620;12.188;2023-04-25T14:42:28;4.60;;;0.47;;
34828;SDS011;21042;47.620;12.188;2023-04-25T14:44:55;1.05;;;0.77;;
34828;SDS011;21042;47.620;12.188;2023-04-25T14:47:21;1.95;;;0.50;;
34828;SDS011;21042;47.620;12.188;2023-04-25T14:49:48;0.52;;;0.20;;
34828;SDS011;21042;47.620;12.188;2023-04-25T14:52:20;0.90;;;0.30;;
34828;SDS011;21042;47.620;12.188;2023-04-25T14:54:47;0.47;;;0.28;;
34828;SDS011;21042;47.620;12.188;2023-04-25T14:57:14;1.10;;;0.30;;
34828;SDS011;21042;47.620;12.188;2023-04-25T14:59:42;2.83;;;0.50;;
34828;SDS011;21042;47.620;12.188;2023-04-25T15:02:08;1.80;;;0.50;;
34828;SDS011;21042;47.620;12.188;2023-04-25T15:04:35;1.23;;;1.02;;
34828;SDS011;21042;47.620;12.188;2023-04-25T15:07:02;0.88;;;0.30;;
34828;SDS011;21042;47.620;12.188;2023-04-25T15:09:30;0.30;;;0.20;;
34828;SDS011;21042;47.620;12.188;2023-04-25T15:11:57;0.17;;;0.17;;
34828;SDS011;21042;47.620;12.188;2023-04-25T15:14:24;0.20;;;0.20;;
34828;SDS011;21042;47.620;12.188;2023-04-25T15:16:51;0.57;;;0.30;;
34828;SDS011;21042;47.620;12.188;2023-04-25T15:19:18;0.85;;;0.30;;
34828;SDS011;21042;47.620;12.188;2023-04-25T15:21:44;0.68;;;0.40;;
34828;SDS011;21042;47.620;12.188;2023-04-25T15:24:11;1.27;;;0.40;;
34828;SDS011;21042;47.620;12.188;2023-04-25T15:26:40;0.88;;;0.50;;
34828;SDS011;21042;47.620;12.188;2023-04-25T15:29:06;2.78;;;1.30;;
34828;SDS011;21042;47.620;12.188;2023-04-25T15:31:33;3.13;;;0.73;;